sensor_id;sensor_type;location;lat;lon;timestamp;P1;durP1;ratioP1;P2;durP2;ratioP2
45734;SDS011;31446;49.632;8.328;2022-10-23T00:12:13;16.60;;;8.10;;
45734;SDS011;31446;49.632;8.328;2022-10-23T00:27:19;18.30;;;8.00;;
45734;SDS011;31446;49.632;8.328;2022-10-23T00:42:25;18.23;;;8.10;;
45734;SDS011;31446;49.632;8.328;2022-10-23T00:57:31;22.65;;;8.73;;
45734;SDS011;31446;49.632;8.328;2022-10-23T01:12:39;17.38;;;8.05;;
45734;SDS011;31446;49.632;8.328;2022-10-23T01:27:51;13.80;;;6.85;;
45734;SDS011;31446;49.632;8.328;2022-10-23T01:43:05;14.77;;;6.47;;
45734;SDS011;31446;49.632;8.328;2022-10-23T01:58:18;16.92;;;6.20;;
45734;SDS011;31446;49.632;8.328;2022-10-23T02:13:27;13.25;;;6.30;;
45734;SDS011;31446;49.632;8.328;2022-10-23T02:28:42;16.37;;;6.47;;
45734;SDS011;31446;49.632;8.328;2022-10-23T02:43:56;11.10;;;5.60;;
45734;SDS011;31446;49.632;8.328;2022-10-23T02:59:13;12.15;;;5.95;;
45734;SDS011;31446;49.632;8.328;2022-10-23T03:14:26;19.25;;;7.47;;
45734;SDS011;31446;49.632;8.328;2022-10-23T03:29:32;34.33;;;12.57;;
45734;SDS011;31446;49.632;8.328;2022-10-23T03:44:38;71.25;;;24.92;;
45734;SDS011;31446;49.632;8.328;2022-10-23T03:59:44;60.85;;;20.98;;
45734;SDS011;31446;49.632;8.328;2022-10-23T04:14:50;32.38;;;12.32;;
45734;SDS011;31446;49.632;8.328;2022-10-23T04:29:57;35.97;;;15.48;;
45734;SDS011;31446;49.632;8.328;2022-10-23T04:45:03;87.03;;;40.40;;
45734;SDS011;31446;49.632;8.328;2022-10-23T05:00:12;313.00;;;131.95;;
45734;SDS011;31446;49.632;8.328;2022-10-23T05:15:20;229.40;;;90.28;;
45734;SDS011;31446;49.632;8.328;2022-10-23T05:30:26;281.73;;;95.53;;
45734;SDS011;31446;49.632;8.328;2022-10-23T05:45:34;158.88;;;65.28;;
45734;SDS011;31446;49.632;8.328;2022-10-23T06:00:40;102.97;;;43.25;;
45734;SDS011;31446;49.632;8.328;2022-10-23T06:15:47;387.13;;;151.30;;
45734;SDS011;31446;49.632;8.328;2022-10-23T06:30:53;244.90;;;87.18;;
45734;SDS011;31446;49.632;8.328;2022-10-23T06:46:01;264.40;;;86.18;;
45734;SDS011;31446;49.632;8.328;2022-10-23T07:01:09;137.13;;;59.75;;
45734;SDS011;31446;49.632;8.328;2022-10-23T07:16:18;137.52;;;71.43;;
45734;SDS011;31446;49.632;8.328;2022-10-23T07:31:25;118.22;;;53.13;;
45734;SDS011;31446;49.632;8.328;2022-10-23T07:57:02;91.28;;;39.78;;
45734;SDS011;31446;49.632;8.328;2022-10-23T08:12:09;181.63;;;73.30;;
45734;SDS011;31446;49.632;8.328;2022-10-23T08:27:15;55.70;;;25.92;;
45734;SDS011;31446;49.632;8.328;2022-10-23T08:42:22;55.55;;;24.83;;
45734;SDS011;31446;49.632;8.328;2022-10-23T08:57:31;23.75;;;9.63;;
45734;SDS011;31446;49.632;8.328;2022-10-23T09:12:41;16.80;;;8.48;;
45734;SDS011;31446;49.632;8.328;2022-10-23T09:27:48;13.38;;;8.57;;
45734;SDS011;31446;49.632;8.328;2022-10-23T09:42:56;15.23;;;7.78;;
45734;SDS011;31446;49.632;8.328;2022-10-23T09:58:17;14.68;;;7.57;;
45734;SDS011;31446;49.632;8.328;2022-10-23T10:13:33;13.35;;;6.55;;
45734;SDS011;31446;49.632;8.328;2022-10-23T10:29:05;14.65;;;7.38;;
45734;SDS011;31446;49.632;8.328;2022-10-23T10:59:59;17.25;;;7.38;;
45734;SDS011;31446;49.632;8.328;2022-10-23T11:15:13;14.10;;;7.53;;
45734;SDS011;31446;49.632;8.328;2022-10-23T11:30:21;14.63;;;6.00;;
45734;SDS011;31446;49.632;8.328;2022-10-23T11:45:30;10.00;;;5.35;;
45734;SDS011;31446;49.632;8.328;2022-10-23T12:00:48;7.38;;;3.22;;
45734;SDS011;31446;49.632;8.328;2022-10-23T12:15:57;10.95;;;3.50;;
45734;SDS011;31446;49.632;8.328;2022-10-23T12:31:05;7.32;;;2.28;;
45734;SDS011;31446;49.632;8.328;2022-10-23T12:46:29;3.95;;;0.95;;
45734;SDS011;31446;49.632;8.328;2022-10-23T13:01:38;4.10;;;1.25;;
45734;SDS011;31446;49.632;8.328;2022-10-23T13:16:44;3.95;;;0.93;;
45734;SDS011;31446;49.632;8.328;2022-10-23T13:31:50;4.97;;;1.65;;
45734;SDS011;31446;49.632;8.328;2022-10-23T13:46:57;7.97;;;1.40;;
45734;SDS011;31446;49.632;8.328;2022-10-23T14:02:05;3.60;;;1.20;;
45734;SDS011;31446;49.632;8.328;2022-10-23T14:17:21;8.27;;;1.30;;
45734;SDS011;31446;49.632;8.328;2022-10-23T14:32:28;3.58;;;1.38;;
45734;SDS011;31446;49.632;8.328;2022-10-23T14:47:34;6.05;;;2.00;;
45734;SDS011;31446;49.632;8.328;2022-10-23T15:02:40;9.43;;;3.53;;
45734;SDS011;31446;49.632;8.328;2022-10-23T15:17:46;2.05;;;1.92;;
45734;SDS011;31446;49.632;8.328;2022-10-23T15:32:53;5.43;;;2.25;;
45734;SDS011;31446;49.632;8.328;2022-10-23T15:47:59;8.23;;;4.25;;
45734;SDS011;31446;49.632;8.328;2022-10-23T16:03:05;7.40;;;4.57;;
45734;SDS011;31446;49.632;8.328;2022-10-23T16:18:12;8.25;;;2.45;;
45734;SDS011;31446;49.632;8.328;2022-10-23T16:33:19;20.25;;;4.25;;
45734;SDS011;31446;49.632;8.328;2022-10-23T16:48:25;6.35;;;4.20;;
45734;SDS011;31446;49.632;8.328;2022-10-23T17:03:32;16.40;;;6.88;;
45734;SDS011;31446;49.632;8.328;2022-10-23T17:18:39;4.18;;;2.50;;
45734;SDS011;31446;49.632;8.328;2022-10-23T17:33:47;10.65;;;2.28;;
45734;SDS011;31446;49.632;8.328;2022-10-23T17:48:55;17.67;;;3.67;;
45734;SDS011;31446;49.632;8.328;2022-10-23T18:04:03;23.15;;;6.55;;
45734;SDS011;31446;49.632;8.328;2022-10-23T18:19:11;19.60;;;3.75;;
45734;SDS011;31446;49.632;8.328;2022-10-23T18:34:19;24.63;;;6.70;;
45734;SDS011;31446;49.632;8.328;2022-10-23T18:49:26;35.75;;;11.32;;
45734;SDS011;31446;49.632;8.328;2022-10-23T19:04:33;23.15;;;8.27;;
45734;SDS011;31446;49.632;8.328;2022-10-23T19:19:42;12.00;;;4.78;;
45734;SDS011;31446;49.632;8.328;2022-10-23T19:34:50;10.65;;;4.78;;
45734;SDS011;31446;49.632;8.328;2022-10-23T19:49:56;8.20;;;3.38;;
45734;SDS011;31446;49.632;8.328;2022-10-23T20:05:03;16.98;;;4.25;;
45734;SDS011;31446;49.632;8.328;2022-10-23T20:20:10;10.18;;;3.65;;
45734;SDS011;31446;49.632;8.328;2022-10-23T20:35:17;9.52;;;4.22;;
45734;SDS011;31446;49.632;8.328;2022-10-23T20:50:23;11.93;;;3.60;;
45734;SDS011;31446;49.632;8.328;2022-10-23T21:05:29;17.38;;;4.07;;
45734;SDS011;31446;49.632;8.328;2022-10-23T21:20:35;12.30;;;3.90;;
45734;SDS011;31446;49.632;8.328;2022-10-23T21:35:41;25.50;;;5.50;;
45734;SDS011;31446;49.632;8.328;2022-10-23T21:50:48;16.80;;;4.80;;
45734;SDS011;31446;49.632;8.328;2022-10-23T22:05:54;13.40;;;4.43;;
45734;SDS011;31446;49.632;8.328;2022-10-23T22:21:03;16.65;;;5.53;;
45734;SDS011;31446;49.632;8.328;2022-10-23T22:36:10;11.32;;;4.47;;
45734;SDS011;31446;49.632;8.328;2022-10-23T22:51:17;14.57;;;5.47;;
45734;SDS011;31446;49.632;8.328;2022-10-23T23:06:24;17.50;;;5.43;;
45734;SDS011;31446;49.632;8.328;2022-10-23T23:21:31;20.92;;;5.50;;
45734;SDS011;31446;49.632;8.328;2022-10-23T23:36:37;15.98;;;5.97;;
45734;SDS011;31446;49.632;8.328;2022-10-23T23:51:43;18.45;;;5.10;;
